createdAt,value
2022-09-02T00:15:40.048Z,99.90
2022-09-02T00:18:15.158Z,99.90
2022-09-02T00:20:47.109Z,99.90
2022-09-02T00:23:15.817Z,99.90
2022-09-02T00:29:52.671Z,99.90
2022-09-02T00:32:20.367Z,99.90
2022-09-02T00:38:57.596Z,99.90
2022-09-02T00:45:35.712Z,99.90
2022-09-02T00:48:04.624Z,99.90
2022-09-02T00:50:37.008Z,99.90
2022-09-02T00:53:11.578Z,99.90
2022-09-02T00:55:46.507Z,99.90
2022-09-02T00:58:25.769Z,99.90
2022-09-02T01:00:57.031Z,99.90
2022-09-02T01:03:28.925Z,99.90
2022-09-02T01:05:58.889Z,99.90
2022-09-02T01:08:31.038Z,99.90
2022-09-02T01:15:12.185Z,99.90
2022-09-02T01:17:47.676Z,99.90
2022-09-02T01:20:20.598Z,99.90
2022-09-02T01:22:53.451Z,99.90
2022-09-02T01:25:26.213Z,99.90
2022-09-02T01:27:54.007Z,99.90
2022-09-02T01:34:31.217Z,99.90
2022-09-02T01:36:58.461Z,99.90
2022-09-02T01:39:25.687Z,99.90
2022-09-02T01:41:53.632Z,99.90
2022-09-02T01:44:20.876Z,99.90
2022-09-02T01:46:48.157Z,99.90
2022-09-02T01:49:15.439Z,99.90
2022-09-02T02:02:58.087Z,99.90
2022-09-02T07:59:07.308Z,99.90
2022-09-02T08:01:35.261Z,99.90
2022-09-02T08:04:06.161Z,99.90
2022-09-02T08:06:34.798Z,99.90
2022-09-02T08:09:09.622Z,99.90
2022-09-02T08:11:40.736Z,99.90
2022-09-02T08:14:12.507Z,99.90
2022-09-02T08:16:40.777Z,99.90
2022-09-02T08:19:09.133Z,99.90
2022-09-02T08:21:36.447Z,99.90
2022-09-02T08:24:04.314Z,99.90
2022-09-02T08:26:32.092Z,99.90
2022-09-02T08:28:59.996Z,99.90
2022-09-02T08:31:27.375Z,99.90
2022-09-02T08:33:54.708Z,99.90
2022-09-02T08:36:22.008Z,99.90
2022-09-02T08:38:49.231Z,99.90
2022-09-02T08:41:38.304Z,99.90
2022-09-02T08:44:07.584Z,99.90
2022-09-02T08:46:35.510Z,99.90
2022-09-02T08:49:13.413Z,99.90
2022-09-02T08:52:00.863Z,99.90
2022-09-02T08:54:37.506Z,99.90
2022-09-02T08:57:05.867Z,99.90
2022-09-02T08:59:33.695Z,99.90
2022-09-02T09:02:36.324Z,99.90
2022-09-02T09:05:38.623Z,99.90
2022-09-02T09:08:38.920Z,99.90
2022-09-02T09:11:21.331Z,99.90
2022-09-02T09:14:10.155Z,99.90
2022-09-02T09:16:55.314Z,99.90
2022-09-02T09:19:49.774Z,99.90
2022-09-02T09:22:22.656Z,99.90
2022-09-02T09:24:51.197Z,99.90
2022-09-02T09:27:22.222Z,99.90
2022-09-02T09:29:53.277Z,99.90
2022-09-02T09:32:33.755Z,99.90
2022-09-02T09:35:07.216Z,99.90
2022-09-02T09:37:46.040Z,99.90
2022-09-02T09:40:19.564Z,99.90
2022-09-02T09:43:05.891Z,99.90
2022-09-02T09:45:49.606Z,99.90
2022-09-02T09:48:21.594Z,99.90
2022-09-02T09:50:56.112Z,99.90
2022-09-02T09:53:32.184Z,99.90
2022-09-02T09:56:05.718Z,99.90
2022-09-02T09:58:40.586Z,99.90
2022-09-02T10:01:33.348Z,99.90
2022-09-02T10:04:44.154Z,99.90
2022-09-02T10:07:12.437Z,99.90
2022-09-02T10:09:39.659Z,99.90
2022-09-02T10:12:13.163Z,99.90
2022-09-02T10:14:49.890Z,99.90
2022-09-02T10:18:05.348Z,99.90
2022-09-02T10:20:48.639Z,99.90
2022-09-02T10:23:47.459Z,99.90
2022-09-02T10:37:20.832Z,99.90
2022-09-02T10:40:08.121Z,99.90
2022-09-02T10:45:35.050Z,99.90
2022-09-02T10:51:15.306Z,96.30
2022-09-02T10:54:11.438Z,96.30
2022-09-02T10:56:59.675Z,94.80
2022-09-02T10:59:32.432Z,93.30
2022-09-02T11:02:32.004Z,92.00
2022-09-02T11:05:24.880Z,91.80
2022-09-02T11:08:01.735Z,91.60
2022-09-02T11:10:42.815Z,90.80
2022-09-02T11:13:31.639Z,90.10
2022-09-02T11:16:21.362Z,89.80
2022-09-02T11:19:12.361Z,84.30
2022-09-02T11:24:43.308Z,81.20
2022-09-02T11:27:43.073Z,83.30
2022-09-02T11:30:18.517Z,79.60
2022-09-02T11:33:06.774Z,81.50
2022-09-02T11:35:37.721Z,80.30
2022-09-02T11:38:52.067Z,76.60
2022-09-02T11:41:48.872Z,78.30
2022-09-02T11:44:26.986Z,75.50
2022-09-02T11:47:28.382Z,78.80
2022-09-02T11:50:52.702Z,76.70
2022-09-02T11:53:39.861Z,78.00
2022-09-02T11:56:21.384Z,78.00
2022-09-02T11:58:52.256Z,76.70
2022-09-02T12:01:28.957Z,73.60
2022-09-02T12:04:59.265Z,76.60
2022-09-02T12:07:13.032Z,76.70
2022-09-02T12:09:55.939Z,77.50
2022-09-02T12:12:44.617Z,76.70
2022-09-02T12:15:19.919Z,81.70
2022-09-02T12:17:50.552Z,79.20
2022-09-02T12:25:49.594Z,98.70
2022-09-02T12:28:31.149Z,99.90
2022-09-02T12:30:58.553Z,97.20
2022-09-02T12:33:43.643Z,99.10
2022-09-02T12:36:36.805Z,98.90
2022-09-02T12:39:42.101Z,99.90
2022-09-02T12:42:09.201Z,99.90
2022-09-02T12:45:29.170Z,99.90
2022-09-02T12:48:07.675Z,99.90
2022-09-02T12:50:57.898Z,99.90
2022-09-02T12:53:25.047Z,99.90
2022-09-02T12:56:00.921Z,98.10
2022-09-02T12:58:35.380Z,98.50
2022-09-02T13:01:42.712Z,97.40
2022-09-02T13:04:31.340Z,92.80
2022-09-02T13:07:54.598Z,78.60
2022-09-02T13:11:19.546Z,78.50
2022-09-02T13:14:25.860Z,75.90
2022-09-02T13:17:42.505Z,74.20
2022-09-02T13:21:08.293Z,78.60
2022-09-02T13:24:19.082Z,70.70
2022-09-02T13:27:05.003Z,71.00
2022-09-02T13:30:11.068Z,71.00
2022-09-02T13:32:39.024Z,78.40
2022-09-02T13:35:24.038Z,75.20
2022-09-02T13:38:00.211Z,76.20
2022-09-02T13:40:34.691Z,79.50
2022-09-02T13:43:15.374Z,80.90
2022-09-02T13:45:44.513Z,77.10
2022-09-02T13:48:19.367Z,96.40
2022-09-02T13:53:45.770Z,99.90
2022-09-02T13:56:30.033Z,99.90
2022-09-02T13:58:57.199Z,99.90
2022-09-02T14:01:36.203Z,97.70
2022-09-02T14:04:13.959Z,93.90
2022-09-02T14:06:46.630Z,88.70
2022-09-02T14:09:29.731Z,89.20
2022-09-02T14:12:00.406Z,79.80
2022-09-02T14:14:29.103Z,78.40
2022-09-02T14:17:26.114Z,79.30
2022-09-02T14:20:22.841Z,78.40
2022-09-02T14:22:59.483Z,78.90
2022-09-02T14:25:32.788Z,78.50
2022-09-02T14:28:00.888Z,79.80
2022-09-02T14:30:38.380Z,79.80
2022-09-02T14:33:36.687Z,78.50
2022-09-02T14:36:16.284Z,81.30
2022-09-02T14:38:46.570Z,81.10
2022-09-02T14:43:54.487Z,94.10
2022-09-02T14:46:32.978Z,96.00
2022-09-02T14:49:11.425Z,94.90
2022-09-02T14:52:02.560Z,96.70
2022-09-02T14:57:32.966Z,88.30
2022-09-02T15:00:08.890Z,90.10
2022-09-02T15:02:36.818Z,89.10
2022-09-02T15:05:08.707Z,90.20
2022-09-02T15:07:42.733Z,90.60
2022-09-02T15:10:10.402Z,90.00
2022-09-02T15:12:54.622Z,91.10
2022-09-02T17:54:38.348Z,99.90
